Galway Airport

EICM · Connaught, Irlanda

2 ottobre 2022

Tempo Codice Tempo metereologico Temp. Vista Base nuvolosa Vento METAR/SPECI
10:30
V
14 °C 10 km+ 4.400 ft 240° 240° 6 kt METAR EINN 020930Z 24006KT 9999 VCSH FEW015 SCT021 BKN044 14/11 Q1022 NOSIG
10:00
V
13 °C 10 km+ - 220° 220° 6 kt METAR EINN 020900Z 22006KT 9999 VCSH FEW020 SCT047 13/11 Q1022 NOSIG
09:30
V
12 °C 10 km+ - 210° 210° 2 kt METAR EINN 020830Z 21002KT 9999 FEW030 SCT050 12/11 Q1021 NOSIG
09:00
V
11 °C 10 km+ 4.800 ft Var 000° 0 kt METAR EINN 020800Z 00000KT 9999 SCT029 BKN048 11/10 Q1021 NOSIG
08:30
V
11 °C 10 km+ 4.200 ft 170° 170° 1 kt METAR EINN 020730Z 17001KT 9999 FEW019 BKN042 11/10 Q1020 NOSIG
08:00
V
9 °C 10 km+ - Var 000° 0 kt METAR EINN 020700Z 00000KT 9999 FEW028 SCT042 09/09 Q1020 NOSIG
07:30
V
10 °C 10 km+ - Var 000° 0 kt METAR EINN 020630Z 00000KT 9999 FEW028 10/08 Q1019 NOSIG
07:00
V
11 °C 10 km+ - 180° 180° 3 kt METAR EINN 020600Z 18003KT 9999 FEW028 SCT043 11/10 Q1019 NOSIG
06:30
V
10 °C 10 km+ 4.600 ft Var 000° 0 kt METAR EINN 020530Z 00000KT 9999 FEW028 BKN046 10/09 Q1018 NOSIG
06:00
V
11 °C 10 km+ - Var Var 2 kt METAR EINN 020500Z VRB02KT 9999 FEW027 SCT050 11/10 Q1018 NOSIG
05:30
V
12 °C 10 km+ 5.000 ft Var Var 2 kt METAR EINN 020430Z VRB02KT 9999 FEW035 BKN050 12/10 Q1017 NOSIG
05:00
V
12 °C 10 km+ 5.000 ft 270° 270° 3 kt METAR EINN 020400Z 27003KT 9999 FEW035 BKN050 12/10 Q1017 NOSIG
04:30
V
12 °C 10 km+ 5.000 ft 280° 280° 3 kt METAR EINN 020330Z 28003KT 9999 FEW035 BKN050 BKN230 12/10 Q1017 NOSIG
04:00
V
12 °C 10 km+ 5.000 ft 280° 280° 3 kt METAR EINN 020300Z 28003KT 9999 FEW035 BKN050 12/11 Q1016 NOSIG
03:30
V
12 °C 10 km+ 5.000 ft 260° 260° 2 kt METAR EINN 020230Z 26002KT 9999 FEW035 BKN050 12/11 Q1016 NOSIG
03:00
V
12 °C 10 km+ 6.000 ft 240° 240° 6 kt METAR EINN 020200Z 24006KT 9999 FEW035 BKN060 BKN180 12/10 Q1016 NOSIG
02:30
V
12 °C 10 km+ 6.000 ft 280° 280° 3 kt METAR EINN 020130Z 28003KT 9999 FEW035 BKN060 12/10 Q1015 NOSIG
02:00
V
12 °C 10 km+ 6.000 ft 260° 260° 4 kt METAR EINN 020100Z 26004KT 9999 FEW035 BKN060 BKN180 12/11 Q1015 NOSIG
01:30
V
12 °C 10 km+ 17.000 ft 250° 250° 5 kt METAR EINN 020030Z 25005KT 9999 FEW035 SCT050 BKN170 12/10 Q1015 NOSIG
01:00
V
12 °C 10 km+ 4.800 ft 260° 260° 6 kt METAR EINN 020000Z 26006KT 9999 FEW020 SCT034 BKN048 12/11 Q1015 NOSIG
00:30
V
13 °C 10 km+ 4.000 ft 290° 290° 5 kt METAR EINN 012330Z 29005KT 9999 FEW012 SCT022 BKN040 13/11 Q1014 NOSIG
00:00
V
12 °C 10 km+ 18.000 ft 240° 240° 6 kt METAR EINN 012300Z 24006KT 9999 FEW035 SCT050 BKN180 12/11 Q1014 NOSIG

1 ottobre 2022

Tempo Codice Tempo metereologico Temp. Vista Base nuvolosa Vento METAR/SPECI
23:30
V
12 °C 10 km+ 5.000 ft 240° 240° 6 kt METAR EINN 012230Z 24006KT 9999 FEW035 BKN050 12/11 Q1014 NOSIG
23:00
V
12 °C 10 km+ 5.000 ft 240° 240° 6 kt METAR EINN 012200Z 24006KT 9999 FEW035 BKN050 12/11 Q1013 NOSIG
22:30
V
12 °C 8 km 3.200 ft 280° 280° 12 kt METAR EINN 012130Z 28012KT 8000 -RADZ FEW012 BKN032 12/11 Q1013 NOSIG
22:00
V
13 °C 10 km+ 5.000 ft 260° 260° 4 kt METAR EINN 012100Z 26004KT 9999 FEW035 BKN050 BKN180 13/11 Q1012 NOSIG
21:30
V
13 °C 10 km+ 19.000 ft 260° 260° 5 kt METAR EINN 012030Z 26005KT 9999 FEW035 SCT060 BKN190 13/11 Q1012 NOSIG
21:00
V
13 °C 10 km+ 19.000 ft 250° 250° 6 kt METAR EINN 012000Z 25006KT 9999 FEW018CB SCT040 BKN190 13/11 Q1012 NOSIG
20:30
V
13 °C 10 km+ 20.000 ft 250° 250° 10 kt METAR EINN 011930Z 25010KT 9999 FEW018CB SCT040 BKN200 13/11 Q1012 NOSIG
20:00
V
13 °C 10 km+ 20.000 ft 230° 230° 6 kt METAR EINN 011900Z 23006KT 9999 FEW030 BKN200 13/11 Q1011 NOSIG
19:30
V
13 °C 10 km+ 20.000 ft 250° 250° 8 kt METAR EINN 011830Z 25008KT 9999 FEW030 BKN200 13/11 Q1011 NOSIG
19:00
V
14 °C 10 km+ 16.000 ft 260° 260° 7 kt METAR EINN 011800Z 26007KT 9999 FEW021 BKN160 14/11 Q1010 NOSIG
18:30
V
14 °C 10 km+ 18.000 ft 250° 250° 9 kt METAR EINN 011730Z 25009KT 9999 FEW021 BKN180 14/11 Q1010 NOSIG
18:00
V
14 °C 10 km+ - 250° 250° 10 kt METAR EINN 011700Z 25010KT 9999 FEW018CB SCT180 14/11 Q1009 NOSIG
17:30
V
14 °C 10 km+ 20.000 ft 250° 250° 12 kt METAR EINN 011630Z 25012KT 9999 FEW018CB SCT045 BKN200 14/10 Q1009 NOSIG
17:00
V
14 °C 10 km+ 4.500 ft 260° 260° 13 kt METAR EINN 011600Z 26013KT 9999 FEW014 SCT018CB BKN045 14/11 Q1009 NOSIG
16:30
M
13 °C 10 km+ 1.800 ft 270° 270° 13 kt METAR EINN 011530Z 27013KT 9999 -SHRA FEW014 BKN018CB BKN040 13/12 Q1009 NOSIG
16:00
V
13 °C 10 km+ 3.000 ft 260° 260° 12 - 26 kt METAR EINN 011500Z 26012G26KT 9999 -SHRA FEW014 SCT018CB BKN030 13/09 Q1009 NOSIG
15:30
V
15 °C 10 km+ 5.000 ft 250° 250° 13 kt METAR EINN 011430Z 25013KT 9999 FEW015 FEW020CB SCT023 BKN050 15/11 Q1009 NOSIG
15:00
V
15 °C 10 km+ 3.900 ft 260° 260° 16 kt METAR EINN 011400Z 26016KT 9999 FEW015 FEW020CB BKN039 15/10 Q1008 NOSIG
14:30
V
15 °C 10 km+ 6.000 ft 250° 250° 13 kt METAR EINN 011330Z 25013KT 9999 FEW015 FEW020CB SCT031 BKN060 15/12 Q1008 NOSIG
14:00
V
13 °C 8 km 3.500 ft 260° 260° 15 kt METAR EINN 011300Z 26015KT 8000 -SHRA FEW010 SCT018CB BKN035 13/11 Q1008 NOSIG
13:30
V
16 °C 10 km+ 3.200 ft 250° 250° 14 kt METAR EINN 011230Z 25014KT 9999 FEW018CB SCT024 BKN032 16/11 Q1007 NOSIG
13:00
V
16 °C 10 km+ 3.000 ft 250° 250° 16 kt METAR EINN 011200Z 25016KT 9999 FEW018CB SCT024 BKN030 16/10 Q1007 NOSIG
12:30
V
16 °C 10 km+ 6.000 ft 250° 250° 16 kt METAR EINN 011130Z 25016KT 9999 FEW018CB SCT023 BKN060 16/10 Q1007 NOSIG
12:00
V
16 °C 10 km+ 3.000 ft 260° 260° 14 - 25 kt METAR EINN 011100Z 26014G25KT 9999 FEW015 FEW018CB BKN030 16/10 Q1007 NOSIG
11:30
V
16 °C 10 km+ - 260° 260° 16 kt METAR EINN 011030Z 26016KT 9999 FEW014 FEW018CB SCT030 16/11 Q1006 NOSIG
11:00
V
15 °C 10 km+ - 240° 240° 15 kt METAR EINN 011000Z 24015KT 9999 FEW010 FEW018CB SCT060 15/12 Q1006 NOSIG
10:30
V
15 °C 10 km+ 6.000 ft 240° 240° 14 kt METAR EINN 010930Z 24014KT 9999 FEW006 FEW018CB BKN060 15/12 Q1006 NOSIG
10:00
V
14 °C 10 km+ 9.000 ft 250° 250° 13 kt METAR EINN 010900Z 25013KT 9999 FEW012 FEW018CB SCT060 BKN090 14/11 Q1005 NOSIG
09:30
V
14 °C 10 km+ 6.000 ft 240° 240° 12 kt METAR EINN 010830Z 24012KT 9999 FEW010 FEW018CB BKN060 14/12 Q1005 NOSIG
09:00
V
13 °C 10 km+ 3.800 ft 250° 250° 10 kt METAR EINN 010800Z 25010KT 9999 FEW012 FEW018CB BKN038 13/11 Q1004 NOSIG
08:30
V
13 °C 10 km+ 5.000 ft 250° 250° 10 kt METAR EINN 010730Z 25010KT 9999 FEW010 FEW018CB SCT030 BKN050 13/11 Q1004 NOSIG
08:00
V
12 °C 10 km+ 3.000 ft 270° 270° 13 kt METAR EINN 010700Z 27013KT 9999 -SHRA FEW010 SCT018CB BKN030 12/10 Q1004 NOSIG
07:30
V
12 °C 10 km+ 6.000 ft 230° 230° 8 kt METAR EINN 010630Z 23008KT 9999 -SHRA FEW010 SCT018CB BKN060 12/11 Q1003 NOSIG
07:00
V
12 °C 10 km+ - 240° 240° 7 kt METAR EINN 010600Z 24007KT 9999 FEW018CB SCT033 12/10 Q1003 NOSIG
06:30
V
13 °C 10 km+ 6.000 ft 260° 260° 17 kt METAR EINN 010530Z 26017KT 9999 -SHRA FEW018CB SCT024 BKN060 13/10 Q1002 NOSIG
06:00
V
13 °C 10 km+ 6.000 ft 260° 260° 17 kt METAR EINN 010500Z 26017KT 9999 FEW018CB SCT024 BKN060 13/10 Q1002 NOSIG
05:30
V
13 °C 10 km+ 20.000 ft 240° 240° 10 kt METAR EINN 010430Z 24010KT 9999 FEW018CB SCT040 BKN200 13/10 Q1002 NOSIG
05:00
V
12 °C 10 km+ 20.000 ft 230° 230° 5 kt METAR EINN 010400Z 23005KT 9999 FEW018CB SCT060 BKN200 12/10 Q1002 NOSIG
04:30
V
12 °C 10 km+ 20.000 ft 240° 240° 7 kt METAR EINN 010330Z 24007KT 9999 FEW018CB SCT060 BKN200 12/10 Q1001 NOSIG
04:00
V
12 °C 10 km+ 20.000 ft 250° 250° 8 kt METAR EINN 010300Z 25008KT 9999 FEW018CB SCT060 BKN200 12/10 Q1001 NOSIG
03:30
V
12 °C 10 km+ 6.000 ft 260° 260° 11 kt METAR EINN 010230Z 26011KT 9999 FEW018CB SCT024 BKN060 12/10 Q1001 NOSIG
03:00
V
13 °C 10 km+ 20.000 ft 260° 260° 8 kt METAR EINN 010200Z 26008KT 9999 -SHRA FEW018CB SCT060 BKN200 13/10 Q1001 NOSIG
02:30
V
13 °C 10 km+ 22.000 ft 250° 250° 12 kt METAR EINN 010130Z 25012KT 9999 FEW018CB SCT037 BKN220 13/10 Q1001 NOSIG
02:00
V
13 °C 10 km+ 3.800 ft 250° 250° 15 kt METAR EINN 010100Z 25015KT 9999 FEW018CB BKN038 13/10 Q1000 NOSIG
01:30
V
13 °C 10 km+ - 260° 260° 8 kt METAR EINN 010030Z 26008KT 9999 FEW018CB SCT030 13/11 Q1000 NOSIG
01:00
V
13 °C 10 km+ - 250° 250° 9 kt METAR EINN 010000Z 25009KT 9999 FEW018CB SCT050 13/11 Q1000 NOSIG
00:30
V
12 °C 10 km+ - 250° 250° 10 kt METAR EINN 302330Z 25010KT 9999 FEW018CB SCT040 12/11 Q1000 NOSIG
00:00
V
13 °C 10 km+ - 250° 250° 13 kt METAR EINN 302300Z 25013KT 9999 FEW018CB SCT060 13/11 Q1000 NOSIG

30 settembre 2022

Tempo Codice Tempo metereologico Temp. Vista Base nuvolosa Vento METAR/SPECI
23:30
V
13 °C 10 km+ 7.000 ft 250° 250° 12 kt METAR EINN 302230Z 25012KT 9999 FEW018CB BKN070 13/11 Q0999 NOSIG
23:00
V
13 °C 10 km+ - 270° 270° 12 kt METAR EINN 302200Z 27012KT 9999 FEW014 FEW018CB SCT050 13/10 Q0999 NOSIG
22:30
V
13 °C 10 km+ 3.000 ft 260° 260° 14 kt METAR EINN 302130Z 26014KT 9999 -SHRA FEW012 FEW018CB BKN030 13/11 Q0999 NOSIG
22:00
V
14 °C 10 km+ 20.000 ft 250° 250° 17 kt METAR EINN 302100Z 25017KT 9999 FEW012 SCT030 BKN200 14/11 Q0999 NOSIG
21:30
V
14 °C 10 km+ 6.000 ft 250° 250° 16 kt METAR EINN 302030Z 25016KT 9999 FEW012 SCT020 BKN060 14/11 Q0998 WS RWY24 NOSIG
21:00
V
15 °C 10 km+ 3.000 ft 250° 250° 13 kt METAR EINN 302000Z 25013KT 9999 FEW014 BKN030 BKN070 15/12 Q0998 WS RWY24 NOSIG
20:30
V
15 °C 10 km+ 20.000 ft 250° 250° 16 kt METAR EINN 301930Z 25016KT 9999 FEW024 SCT040 BKN200 15/12 Q0998 WS RWY24 NOSIG
20:00
V
15 °C 10 km+ 20.000 ft 250° 250° 17 kt METAR EINN 301900Z 25017KT 9999 FEW024 SCT035 BKN200 15/11 Q0998 WS RWY24 NOSIG
19:30
V
15 °C 10 km+ 20.000 ft 250° 250° 18 kt METAR EINN 301830Z 25018KT 9999 FEW028 BKN200 15/11 Q0997 WS RWY24 NOSIG
19:00
V
15 °C 10 km+ 20.000 ft 250° 250° 17 kt METAR EINN 301800Z 25017KT 9999 FEW030 BKN200 15/11 Q0997 NOSIG
18:30
V
15 °C 10 km+ 20.000 ft 250° 250° 17 kt METAR EINN 301730Z 25017KT 9999 FEW022 BKN200 15/12 Q0997 NOSIG
18:00
V
15 °C 10 km+ 21.000 ft 260° 260° 16 kt METAR EINN 301700Z 26016KT 9999 FEW020 SCT040 BKN210 15/11 Q0997 WS RWY24 NOSIG
17:30
V
15 °C 10 km+ 20.000 ft 260° 260° 14 kt METAR EINN 301630Z 26014KT 9999 FEW024 BKN200 15/11 Q0997 WS RWY24 NOSIG
17:00
V
16 °C 10 km+ 20.000 ft 260° 260° 19 kt METAR EINN 301600Z 26019KT 9999 SCT024 BKN200 16/11 Q0997 NOSIG
16:30
V
16 °C 10 km+ 20.000 ft 270° 270° 18 - 28 kt METAR EINN 301530Z 27018G28KT 9999 SCT024 BKN200 16/11 Q0997 NOSIG
16:00
V
17 °C 10 km+ 20.000 ft 270° 270° 19 kt METAR EINN 301500Z 27019KT 9999 SCT024 BKN200 17/12 Q0996 NOSIG
15:30
V
17 °C 10 km+ 3.500 ft 280° 280° 18 kt METAR EINN 301430Z 28018KT 9999 FEW020 BKN035 BKN180 17/12 Q0996 NOSIG
15:00
V
17 °C 10 km+ - 280° 280° 18 kt METAR EINN 301400Z 28018KT 9999 FEW018 SCT045 17/12 Q0996 NOSIG
14:30
V
17 °C 10 km+ - 280° 280° 18 kt METAR EINN 301330Z 28018KT 9999 FEW018 SCT040 17/11 Q0996 NOSIG
14:00
V
17 °C 10 km+ - 270° 270° 18 kt METAR EINN 301300Z 27018KT 9999 SCT018 17/13 Q0995 NOSIG
13:30
M
16 °C 10 km+ 1.800 ft 280° 280° 17 kt METAR EINN 301230Z 28017KT 9999 BKN018 16/13 Q0995 NOSIG
13:00
V
16 °C 10 km+ 17.000 ft 280° 280° 15 kt METAR EINN 301200Z 28015KT 9999 FEW015 SCT038 BKN170 16/14 Q0995 NOSIG
12:30
V
16 °C 10 km+ 17.000 ft 270° 270° 16 kt METAR EINN 301130Z 27016KT 9999 FEW013 SCT030 BKN170 16/14 Q0995 NOSIG
12:00
I
16 °C 4 km 900 ft 250° 250° 25 - 35 kt METAR EINN 301100Z 25025G35KT 4000 -RADZ SCT007 BKN009 BKN015 16/16 Q0994 BECMG 9999 NSW BKN015
11:30
I
16 °C 5 km 800 ft 240° 240° 25 kt METAR EINN 301030Z 24025KT 5000 -RADZ FEW006 BKN008 BKN015 16/16 Q0994 BECMG 9999 NSW BKN015
11:00
I
16 °C 4 km 800 ft 240° 240° 23 kt METAR EINN 301000Z 24023KT 4000 -RADZ BKN008 BKN014 16/16 Q0994 BECMG 9999 NSW BKN015
Dati più vecchi

Noi e le terze parti seguiamo il tuo comportamento in internet sul nostro sito web con i cookie. Se continui, riteniamo che tu sia d'accordo con la nostra politica sui cookie. Per saperne di più